Piedmont, SD (57769)

1:16 PM MDT on July 30, 2016 (GMT -0600)
Elk Creek/Running Deer Trail | | Change Station

Elev 3225 ft 44.24 °N, 103.31 °W | Updated 20 seconds ago

Clear
Clear
86.4 °F
Feels Like 85 °F
N
5.0
Wind Variable Wind from SSW
Gusts 18.0 mph

Today
High -- | Low -- °F
--% Chance of Precip.
Yesterday
High -- | Low -- °F
Precip. -- in
Pressure 29.81 in
Visibility -9999.0 miles
Clouds Clear
Heat Index 85 °F
Dew Point 58 °F
Humidity 38%
Rainfall 0.00 in
Snow Depth Not available.
5:38 AM 8:19 PM
Waning Crescent, 11% visible
METAR KRCA 301858Z AUTO 18012G17KT M M CLR 31/15 A2988 RMK AO2 SLP092 T03070150 $
Pressure 29.81 in
Visibility -9999.0 miles
Clouds Clear
Heat Index 85 °F
Dew Point 58 °F
Humidity 38%
Rainfall 0.00 in
Snow Depth Not available.
5:38 AM 8:19 PM
Waning Crescent, 11% visible
METAR KRCA 301858Z AUTO 18012G17KT M M CLR 31/15 A2988 RMK AO2 SLP092 T03070150 $

10-Day Weather Forecast

Almanac

Astronomy

Jul. 30, 2016 Rise Set
Actual Time
Civil Twilight
Nautical Twilight
Astronomical Twilight
Moon
Length of Visible Light
Length of Day
Tomorrow will be .
, % of the Moon is Illuminated

Today's Extremes

State Highs State Lows

Community

WunderPhotos

Upload Photos

1,928,622 photos uploaded!

WunderBlog® & News

Nearby

Air Quality

  Air Quality AQ Index Pollutant
Not available.

Snow Depth

Station Depth Elevation

Earthquake Activity

City Distance Mag. Time & Date
Minimum magnitude displayed is 2.5.

Coastal Water Temperatures

Place Temperature

Stations

Nearby Weather Stations

Station Location Temp. Windchill Dew Point Humidity Wind Precip. Elev Updated Type
                   

Watches & Warnings

There are currently no watches in effect.